Terminal Aerodrome Forecast
Issued by NWS

Current Version | Previous Version | Text Only | Print | Product List | Glossary On
Versions: 1 2 3 4 5 6 7 8 9 10 11 12 13 14 15 16 17 18 19
000
FTUS42 KJAX 051120
TAFCRG
TAF
KCRG 051120Z 0512/0612 17005KT 5SM BR SCT035 BKN200
      TEMPO 0512/0513 2SM BR
     FM051300 20010KT P6SM BKN035
     FM051800 20012KT P6SM VCSH BKN025 OVC035
     FM052100 12008KT 5SM -RA OVC015
     FM060600 19012KT 4SM SHRA OVC010=

USA.gov is the U.S. government's official web portal to all federal, state and local government web resources and services.